sensor_id;sensor_type;location;lat;lon;timestamp;P1;durP1;ratioP1;P2;durP2;ratioP2
7817;SDS011;3954;52.624;9.212;2023-03-14T00:01:25;5.70;;;2.50;;
7817;SDS011;3954;52.624;9.212;2023-03-14T00:03:51;4.93;;;2.33;;
7817;SDS011;3954;52.624;9.212;2023-03-14T00:06:17;4.83;;;2.00;;
7817;SDS011;3954;52.624;9.212;2023-03-14T00:08:43;9.53;;;2.40;;
7817;SDS011;3954;52.624;9.212;2023-03-14T00:11:10;4.53;;;2.27;;
7817;SDS011;3954;52.624;9.212;2023-03-14T00:13:36;5.87;;;2.00;;
7817;SDS011;3954;52.624;9.212;2023-03-14T00:16:05;5.03;;;2.20;;
7817;SDS011;3954;52.624;9.212;2023-03-14T00:18:31;5.50;;;2.43;;
7817;SDS011;3954;52.624;9.212;2023-03-14T00:20:58;4.10;;;1.97;;
7817;SDS011;3954;52.624;9.212;2023-03-14T00:23:24;4.97;;;2.27;;
7817;SDS011;3954;52.624;9.212;2023-03-14T00:25:50;4.47;;;2.07;;
7817;SDS011;3954;52.624;9.212;2023-03-14T00:28:16;3.97;;;2.07;;
7817;SDS011;3954;52.624;9.212;2023-03-14T00:30:42;5.40;;;2.10;;
7817;SDS011;3954;52.624;9.212;2023-03-14T00:33:09;6.40;;;2.10;;
7817;SDS011;3954;52.624;9.212;2023-03-14T00:35:35;4.37;;;1.90;;
7817;SDS011;3954;52.624;9.212;2023-03-14T00:38:01;3.90;;;2.13;;
7817;SDS011;3954;52.624;9.212;2023-03-14T00:40:27;4.13;;;2.13;;
7817;SDS011;3954;52.624;9.212;2023-03-14T00:42:53;5.63;;;2.37;;
7817;SDS011;3954;52.624;9.212;2023-03-14T00:45:19;6.03;;;2.10;;
7817;SDS011;3954;52.624;9.212;2023-03-14T00:47:45;6.23;;;2.07;;
7817;SDS011;3954;52.624;9.212;2023-03-14T00:50:13;4.37;;;2.53;;
7817;SDS011;3954;52.624;9.212;2023-03-14T00:52:39;3.40;;;2.10;;
7817;SDS011;3954;52.624;9.212;2023-03-14T00:55:05;2.57;;;1.80;;
7817;SDS011;3954;52.624;9.212;2023-03-14T00:57:31;5.57;;;2.13;;
7817;SDS011;3954;52.624;9.212;2023-03-14T00:59:57;4.13;;;1.97;;
7817;SDS011;3954;52.624;9.212;2023-03-14T01:02:23;3.93;;;1.90;;
7817;SDS011;3954;52.624;9.212;2023-03-14T01:04:49;4.67;;;2.17;;
7817;SDS011;3954;52.624;9.212;2023-03-14T01:07:17;2.60;;;1.83;;
7817;SDS011;3954;52.624;9.212;2023-03-14T01:09:43;5.57;;;2.00;;
7817;SDS011;3954;52.624;9.212;2023-03-14T01:12:09;3.67;;;1.80;;
7817;SDS011;3954;52.624;9.212;2023-03-14T01:14:35;3.10;;;1.90;;
7817;SDS011;3954;52.624;9.212;2023-03-14T01:17:01;2.90;;;2.00;;
7817;SDS011;3954;52.624;9.212;2023-03-14T01:19:27;4.57;;;2.30;;
7817;SDS011;3954;52.624;9.212;2023-03-14T01:21:53;4.07;;;2.00;;
7817;SDS011;3954;52.624;9.212;2023-03-14T01:24:21;3.83;;;2.00;;
7817;SDS011;3954;52.624;9.212;2023-03-14T01:26:47;3.07;;;1.97;;
7817;SDS011;3954;52.624;9.212;2023-03-14T01:29:13;6.33;;;2.30;;
7817;SDS011;3954;52.624;9.212;2023-03-14T01:31:39;5.37;;;1.70;;
7817;SDS011;3954;52.624;9.212;2023-03-14T01:34:05;4.83;;;2.53;;
7817;SDS011;3954;52.624;9.212;2023-03-14T01:36:31;3.63;;;2.03;;
7817;SDS011;3954;52.624;9.212;2023-03-14T01:38:57;4.50;;;2.23;;
7817;SDS011;3954;52.624;9.212;2023-03-14T01:41:25;3.70;;;1.47;;
7817;SDS011;3954;52.624;9.212;2023-03-14T01:43:51;3.67;;;1.80;;
7817;SDS011;3954;52.624;9.212;2023-03-14T01:46:19;3.37;;;1.80;;
7817;SDS011;3954;52.624;9.212;2023-03-14T01:48:46;3.80;;;1.67;;
7817;SDS011;3954;52.624;9.212;2023-03-14T01:51:14;3.87;;;2.17;;
7817;SDS011;3954;52.624;9.212;2023-03-14T01:53:41;3.73;;;1.90;;
7817;SDS011;3954;52.624;9.212;2023-03-14T01:56:08;5.33;;;2.10;;
7817;SDS011;3954;52.624;9.212;2023-03-14T01:58:36;3.43;;;2.13;;
7817;SDS011;3954;52.624;9.212;2023-03-14T02:01:04;4.03;;;2.20;;
7817;SDS011;3954;52.624;9.212;2023-03-14T02:03:32;4.20;;;1.97;;
7817;SDS011;3954;52.624;9.212;2023-03-14T02:06:03;4.00;;;2.23;;
7817;SDS011;3954;52.624;9.212;2023-03-14T02:08:30;5.23;;;1.97;;
7817;SDS011;3954;52.624;9.212;2023-03-14T02:10:56;4.53;;;2.43;;
7817;SDS011;3954;52.624;9.212;2023-03-14T02:13:22;5.03;;;2.20;;
7817;SDS011;3954;52.624;9.212;2023-03-14T02:15:50;3.67;;;1.90;;
7817;SDS011;3954;52.624;9.212;2023-03-14T02:18:16;5.20;;;2.20;;
7817;SDS011;3954;52.624;9.212;2023-03-14T02:20:45;7.03;;;2.63;;
7817;SDS011;3954;52.624;9.212;2023-03-14T02:23:13;6.20;;;2.07;;
7817;SDS011;3954;52.624;9.212;2023-03-14T02:25:41;3.93;;;2.07;;
7817;SDS011;3954;52.624;9.212;2023-03-14T02:28:09;4.50;;;2.23;;
7817;SDS011;3954;52.624;9.212;2023-03-14T02:30:36;4.63;;;1.80;;
7817;SDS011;3954;52.624;9.212;2023-03-14T02:33:03;4.47;;;2.00;;
7817;SDS011;3954;52.624;9.212;2023-03-14T02:35:31;3.93;;;1.80;;
7817;SDS011;3954;52.624;9.212;2023-03-14T02:37:59;4.87;;;1.87;;
7817;SDS011;3954;52.624;9.212;2023-03-14T02:40:26;4.17;;;1.83;;
7817;SDS011;3954;52.624;9.212;2023-03-14T02:42:52;5.27;;;1.87;;
7817;SDS011;3954;52.624;9.212;2023-03-14T02:45:35;4.43;;;2.00;;
7817;SDS011;3954;52.624;9.212;2023-03-14T02:48:03;5.23;;;1.90;;
7817;SDS011;3954;52.624;9.212;2023-03-14T02:50:30;4.37;;;1.93;;
7817;SDS011;3954;52.624;9.212;2023-03-14T02:52:58;5.90;;;2.10;;
7817;SDS011;3954;52.624;9.212;2023-03-14T02:55:24;6.33;;;2.00;;
7817;SDS011;3954;52.624;9.212;2023-03-14T02:57:51;2.73;;;1.47;;
7817;SDS011;3954;52.624;9.212;2023-03-14T03:00:18;3.40;;;1.90;;
7817;SDS011;3954;52.624;9.212;2023-03-14T03:02:45;4.60;;;1.80;;
7817;SDS011;3954;52.624;9.212;2023-03-14T03:05:12;3.73;;;2.20;;
7817;SDS011;3954;52.624;9.212;2023-03-14T03:07:38;3.17;;;1.87;;
7817;SDS011;3954;52.624;9.212;2023-03-14T03:10:04;4.73;;;1.73;;
7817;SDS011;3954;52.624;9.212;2023-03-14T03:12:30;5.07;;;2.00;;
7817;SDS011;3954;52.624;9.212;2023-03-14T03:14:56;5.73;;;2.03;;
7817;SDS011;3954;52.624;9.212;2023-03-14T03:17:22;6.50;;;1.90;;
7817;SDS011;3954;52.624;9.212;2023-03-14T03:19:49;6.37;;;2.00;;
7817;SDS011;3954;52.624;9.212;2023-03-14T03:22:15;7.03;;;2.13;;
7817;SDS011;3954;52.624;9.212;2023-03-14T03:24:41;4.63;;;1.90;;
7817;SDS011;3954;52.624;9.212;2023-03-14T03:27:07;4.17;;;1.70;;
7817;SDS011;3954;52.624;9.212;2023-03-14T03:29:33;4.87;;;2.03;;
7817;SDS011;3954;52.624;9.212;2023-03-14T03:31:59;5.60;;;2.00;;
7817;SDS011;3954;52.624;9.212;2023-03-14T03:34:26;4.23;;;1.97;;
7817;SDS011;3954;52.624;9.212;2023-03-14T03:36:56;6.27;;;1.93;;
7817;SDS011;3954;52.624;9.212;2023-03-14T03:39:22;6.07;;;2.00;;
7817;SDS011;3954;52.624;9.212;2023-03-14T03:41:48;7.00;;;2.03;;
7817;SDS011;3954;52.624;9.212;2023-03-14T03:44:14;4.27;;;1.60;;
7817;SDS011;3954;52.624;9.212;2023-03-14T03:46:40;6.00;;;2.03;;
7817;SDS011;3954;52.624;9.212;2023-03-14T03:49:06;4.07;;;1.50;;
7817;SDS011;3954;52.624;9.212;2023-03-14T03:51:32;3.23;;;1.70;;
7817;SDS011;3954;52.624;9.212;2023-03-14T03:54:00;3.37;;;1.40;;
7817;SDS011;3954;52.624;9.212;2023-03-14T03:56:26;2.83;;;1.27;;
7817;SDS011;3954;52.624;9.212;2023-03-14T03:58:52;2.20;;;1.20;;
7817;SDS011;3954;52.624;9.212;2023-03-14T04:01:17;4.03;;;1.57;;
7817;SDS011;3954;52.624;9.212;2023-03-14T04:03:43;3.07;;;1.50;;
7817;SDS011;3954;52.624;9.212;2023-03-14T04:06:10;2.53;;;1.40;;
7817;SDS011;3954;52.624;9.212;2023-03-14T04:08:36;1.63;;;1.13;;
7817;SDS011;3954;52.624;9.212;2023-03-14T04:11:04;3.73;;;1.50;;
7817;SDS011;3954;52.624;9.212;2023-03-14T04:13:30;3.67;;;1.47;;
7817;SDS011;3954;52.624;9.212;2023-03-14T04:15:56;2.87;;;1.27;;
7817;SDS011;3954;52.624;9.212;2023-03-14T04:18:22;3.57;;;1.67;;
7817;SDS011;3954;52.624;9.212;2023-03-14T04:20:52;4.00;;;1.30;;
7817;SDS011;3954;52.624;9.212;2023-03-14T04:23:18;4.40;;;1.60;;
7817;SDS011;3954;52.624;9.212;2023-03-14T04:25:44;4.00;;;1.30;;
7817;SDS011;3954;52.624;9.212;2023-03-14T04:28:11;4.57;;;2.10;;
7817;SDS011;3954;52.624;9.212;2023-03-14T04:30:37;2.40;;;1.30;;
7817;SDS011;3954;52.624;9.212;2023-03-14T04:33:03;3.30;;;1.67;;
7817;SDS011;3954;52.624;9.212;2023-03-14T04:35:30;4.00;;;1.60;;
7817;SDS011;3954;52.624;9.212;2023-03-14T04:37:56;3.00;;;1.50;;
7817;SDS011;3954;52.624;9.212;2023-03-14T04:40:22;3.00;;;1.40;;
7817;SDS011;3954;52.624;9.212;2023-03-14T04:42:48;3.50;;;1.57;;
7817;SDS011;3954;52.624;9.212;2023-03-14T04:45:15;3.23;;;1.43;;
7817;SDS011;3954;52.624;9.212;2023-03-14T04:47:41;1.93;;;1.40;;
7817;SDS011;3954;52.624;9.212;2023-03-14T04:50:07;2.20;;;1.30;;
7817;SDS011;3954;52.624;9.212;2023-03-14T04:52:34;4.80;;;1.50;;
7817;SDS011;3954;52.624;9.212;2023-03-14T04:55:00;2.37;;;1.40;;
7817;SDS011;3954;52.624;9.212;2023-03-14T04:57:26;2.70;;;1.37;;
7817;SDS011;3954;52.624;9.212;2023-03-14T04:59:52;1.90;;;1.53;;
7817;SDS011;3954;52.624;9.212;2023-03-14T05:02:19;2.43;;;1.50;;
7817;SDS011;3954;52.624;9.212;2023-03-14T05:04:45;4.13;;;1.87;;
7817;SDS011;3954;52.624;9.212;2023-03-14T05:07:11;3.80;;;1.60;;
7817;SDS011;3954;52.624;9.212;2023-03-14T05:09:37;5.13;;;1.73;;
7817;SDS011;3954;52.624;9.212;2023-03-14T05:12:03;3.23;;;1.80;;
7817;SDS011;3954;52.624;9.212;2023-03-14T05:14:29;2.83;;;1.60;;
7817;SDS011;3954;52.624;9.212;2023-03-14T05:16:55;4.67;;;1.60;;
7817;SDS011;3954;52.624;9.212;2023-03-14T05:19:23;2.97;;;1.77;;
7817;SDS011;3954;52.624;9.212;2023-03-14T05:21:49;3.80;;;1.70;;
7817;SDS011;3954;52.624;9.212;2023-03-14T05:24:15;5.70;;;1.90;;
7817;SDS011;3954;52.624;9.212;2023-03-14T05:26:41;3.33;;;1.67;;
7817;SDS011;3954;52.624;9.212;2023-03-14T05:29:07;2.47;;;1.70;;
7817;SDS011;3954;52.624;9.212;2023-03-14T05:31:32;4.13;;;2.03;;
7817;SDS011;3954;52.624;9.212;2023-03-14T05:33:58;3.17;;;2.47;;
7817;SDS011;3954;52.624;9.212;2023-03-14T05:36:26;5.13;;;2.23;;
7817;SDS011;3954;52.624;9.212;2023-03-14T05:38:52;5.83;;;3.10;;
7817;SDS011;3954;52.624;9.212;2023-03-14T05:41:18;5.03;;;2.70;;
7817;SDS011;3954;52.624;9.212;2023-03-14T05:43:44;5.77;;;2.57;;
7817;SDS011;3954;52.624;9.212;2023-03-14T05:46:10;3.27;;;2.47;;
7817;SDS011;3954;52.624;9.212;2023-03-14T05:48:36;5.67;;;2.77;;
7817;SDS011;3954;52.624;9.212;2023-03-14T05:51:02;6.57;;;2.97;;
7817;SDS011;3954;52.624;9.212;2023-03-14T05:53:29;5.77;;;3.27;;
7817;SDS011;3954;52.624;9.212;2023-03-14T05:55:55;7.37;;;3.10;;
7817;SDS011;3954;52.624;9.212;2023-03-14T05:58:21;7.10;;;3.07;;
7817;SDS011;3954;52.624;9.212;2023-03-14T06:00:47;7.60;;;3.17;;
7817;SDS011;3954;52.624;9.212;2023-03-14T06:03:14;5.10;;;2.67;;
7817;SDS011;3954;52.624;9.212;2023-03-14T06:05:40;6.33;;;2.83;;
7817;SDS011;3954;52.624;9.212;2023-03-14T06:08:06;5.80;;;3.73;;
7817;SDS011;3954;52.624;9.212;2023-03-14T06:10:34;8.47;;;4.83;;
7817;SDS011;3954;52.624;9.212;2023-03-14T06:13:00;8.47;;;3.57;;
7817;SDS011;3954;52.624;9.212;2023-03-14T06:15:26;5.57;;;2.90;;
7817;SDS011;3954;52.624;9.212;2023-03-14T06:17:53;4.23;;;2.80;;
7817;SDS011;3954;52.624;9.212;2023-03-14T06:20:19;4.73;;;3.10;;
7817;SDS011;3954;52.624;9.212;2023-03-14T06:22:45;5.37;;;2.80;;
7817;SDS011;3954;52.624;9.212;2023-03-14T06:25:11;6.90;;;3.40;;
7817;SDS011;3954;52.624;9.212;2023-03-14T06:27:38;4.90;;;3.00;;
7817;SDS011;3954;52.624;9.212;2023-03-14T06:30:05;5.63;;;3.00;;
7817;SDS011;3954;52.624;9.212;2023-03-14T06:32:31;7.80;;;3.77;;
7817;SDS011;3954;52.624;9.212;2023-03-14T06:34:57;7.33;;;4.03;;
7817;SDS011;3954;52.624;9.212;2023-03-14T06:37:26;7.30;;;3.67;;
7817;SDS011;3954;52.624;9.212;2023-03-14T06:39:51;5.57;;;3.27;;
7817;SDS011;3954;52.624;9.212;2023-03-14T06:42:18;8.07;;;3.77;;
7817;SDS011;3954;52.624;9.212;2023-03-14T06:44:45;9.77;;;4.30;;
7817;SDS011;3954;52.624;9.212;2023-03-14T06:47:11;7.60;;;3.27;;
7817;SDS011;3954;52.624;9.212;2023-03-14T06:49:37;9.53;;;3.60;;
7817;SDS011;3954;52.624;9.212;2023-03-14T06:52:03;5.63;;;3.00;;
7817;SDS011;3954;52.624;9.212;2023-03-14T06:54:29;8.47;;;3.33;;
7817;SDS011;3954;52.624;9.212;2023-03-14T06:56:55;7.83;;;2.93;;
7817;SDS011;3954;52.624;9.212;2023-03-14T06:59:21;6.60;;;3.13;;
7817;SDS011;3954;52.624;9.212;2023-03-14T07:01:48;7.50;;;2.87;;
7817;SDS011;3954;52.624;9.212;2023-03-14T07:04:15;6.33;;;3.07;;
7817;SDS011;3954;52.624;9.212;2023-03-14T07:06:41;8.13;;;2.70;;
7817;SDS011;3954;52.624;9.212;2023-03-14T07:09:09;6.23;;;2.60;;
7817;SDS011;3954;52.624;9.212;2023-03-14T07:11:35;5.63;;;2.63;;
7817;SDS011;3954;52.624;9.212;2023-03-14T07:14:01;5.70;;;2.40;;
7817;SDS011;3954;52.624;9.212;2023-03-14T07:16:27;3.97;;;2.40;;
7817;SDS011;3954;52.624;9.212;2023-03-14T07:18:57;4.70;;;2.20;;
7817;SDS011;3954;52.624;9.212;2023-03-14T07:21:23;6.17;;;2.20;;
7817;SDS011;3954;52.624;9.212;2023-03-14T07:23:49;6.20;;;2.50;;
7817;SDS011;3954;52.624;9.212;2023-03-14T07:26:15;3.83;;;2.17;;
7817;SDS011;3954;52.624;9.212;2023-03-14T07:28:41;4.40;;;1.90;;
7817;SDS011;3954;52.624;9.212;2023-03-14T07:31:07;5.17;;;2.13;;
7817;SDS011;3954;52.624;9.212;2023-03-14T07:33:33;6.43;;;2.17;;
7817;SDS011;3954;52.624;9.212;2023-03-14T07:36:01;4.37;;;2.73;;
7817;SDS011;3954;52.624;9.212;2023-03-14T07:38:27;4.97;;;1.80;;
7817;SDS011;3954;52.624;9.212;2023-03-14T07:40:57;4.13;;;1.40;;
7817;SDS011;3954;52.624;9.212;2023-03-14T07:43:23;5.87;;;2.00;;
7817;SDS011;3954;52.624;9.212;2023-03-14T07:45:49;3.30;;;1.63;;
7817;SDS011;3954;52.624;9.212;2023-03-14T07:48:15;3.47;;;1.70;;
7817;SDS011;3954;52.624;9.212;2023-03-14T07:50:42;3.83;;;1.60;;
7817;SDS011;3954;52.624;9.212;2023-03-14T07:53:09;2.90;;;1.50;;
7817;SDS011;3954;52.624;9.212;2023-03-14T07:55:35;2.60;;;1.57;;
7817;SDS011;3954;52.624;9.212;2023-03-14T07:58:01;3.97;;;1.60;;
7817;SDS011;3954;52.624;9.212;2023-03-14T08:00:27;4.10;;;1.67;;
7817;SDS011;3954;52.624;9.212;2023-03-14T08:02:53;2.30;;;1.40;;
7817;SDS011;3954;52.624;9.212;2023-03-14T08:05:19;2.90;;;1.40;;
7817;SDS011;3954;52.624;9.212;2023-03-14T08:07:45;3.57;;;1.50;;
7817;SDS011;3954;52.624;9.212;2023-03-14T08:10:13;2.10;;;1.47;;
7817;SDS011;3954;52.624;9.212;2023-03-14T08:12:45;3.30;;;1.47;;
7817;SDS011;3954;52.624;9.212;2023-03-14T08:15:11;2.80;;;1.30;;
7817;SDS011;3954;52.624;9.212;2023-03-14T08:17:37;3.03;;;2.10;;
7817;SDS011;3954;52.624;9.212;2023-03-14T08:20:04;3.40;;;1.60;;
7817;SDS011;3954;52.624;9.212;2023-03-14T08:22:35;1.53;;;1.17;;
7817;SDS011;3954;52.624;9.212;2023-03-14T08:25:01;2.27;;;1.80;;
7817;SDS011;3954;52.624;9.212;2023-03-14T08:27:29;2.70;;;1.20;;
7817;SDS011;3954;52.624;9.212;2023-03-14T08:29:55;1.37;;;1.20;;
7817;SDS011;3954;52.624;9.212;2023-03-14T08:32:21;1.73;;;1.00;;
7817;SDS011;3954;52.624;9.212;2023-03-14T08:34:48;3.50;;;1.00;;
7817;SDS011;3954;52.624;9.212;2023-03-14T08:37:14;1.43;;;0.90;;
7817;SDS011;3954;52.624;9.212;2023-03-14T08:39:40;1.47;;;1.17;;
7817;SDS011;3954;52.624;9.212;2023-03-14T08:42:06;1.70;;;1.10;;
7817;SDS011;3954;52.624;9.212;2023-03-14T08:44:34;2.37;;;1.10;;
7817;SDS011;3954;52.624;9.212;2023-03-14T08:46:59;1.20;;;1.10;;
7817;SDS011;3954;52.624;9.212;2023-03-14T08:49:25;1.13;;;1.10;;
7817;SDS011;3954;52.624;9.212;2023-03-14T08:51:51;1.33;;;1.10;;
7817;SDS011;3954;52.624;9.212;2023-03-14T08:54:17;1.40;;;1.30;;
7817;SDS011;3954;52.624;9.212;2023-03-14T08:56:44;1.47;;;1.30;;
7817;SDS011;3954;52.624;9.212;2023-03-14T08:59:10;1.73;;;1.10;;
7817;SDS011;3954;52.624;9.212;2023-03-14T09:01:37;2.40;;;1.10;;
7817;SDS011;3954;52.624;9.212;2023-03-14T09:04:04;1.40;;;1.30;;
7817;SDS011;3954;52.624;9.212;2023-03-14T09:06:30;1.67;;;1.40;;
7817;SDS011;3954;52.624;9.212;2023-03-14T09:08:56;2.70;;;1.30;;
7817;SDS011;3954;52.624;9.212;2023-03-14T09:11:22;1.50;;;1.40;;
7817;SDS011;3954;52.624;9.212;2023-03-14T09:13:48;1.80;;;1.27;;
7817;SDS011;3954;52.624;9.212;2023-03-14T09:16:14;1.37;;;1.20;;
7817;SDS011;3954;52.624;9.212;2023-03-14T09:18:41;1.47;;;1.37;;
7817;SDS011;3954;52.624;9.212;2023-03-14T09:21:07;1.70;;;1.60;;
7817;SDS011;3954;52.624;9.212;2023-03-14T09:23:33;1.97;;;1.20;;
7817;SDS011;3954;52.624;9.212;2023-03-14T09:25:59;2.17;;;1.43;;
7817;SDS011;3954;52.624;9.212;2023-03-14T09:28:26;1.40;;;1.30;;
7817;SDS011;3954;52.624;9.212;2023-03-14T09:30:52;1.50;;;1.40;;
7817;SDS011;3954;52.624;9.212;2023-03-14T09:33:19;1.60;;;1.40;;
7817;SDS011;3954;52.624;9.212;2023-03-14T09:35:47;2.00;;;1.73;;
7817;SDS011;3954;52.624;9.212;2023-03-14T09:38:13;1.90;;;1.60;;
7817;SDS011;3954;52.624;9.212;2023-03-14T09:40:40;1.60;;;1.50;;
7817;SDS011;3954;52.624;9.212;2023-03-14T09:43:08;2.53;;;1.80;;
7817;SDS011;3954;52.624;9.212;2023-03-14T09:45:35;1.93;;;1.63;;
7817;SDS011;3954;52.624;9.212;2023-03-14T09:48:03;2.80;;;1.90;;
7817;SDS011;3954;52.624;9.212;2023-03-14T09:50:31;2.33;;;1.80;;
7817;SDS011;3954;52.624;9.212;2023-03-14T09:53:01;3.03;;;1.80;;
7817;SDS011;3954;52.624;9.212;2023-03-14T09:55:27;3.23;;;1.90;;
7817;SDS011;3954;52.624;9.212;2023-03-14T09:57:54;2.20;;;1.80;;
7817;SDS011;3954;52.624;9.212;2023-03-14T10:00:23;1.93;;;1.80;;
7817;SDS011;3954;52.624;9.212;2023-03-14T10:02:52;2.23;;;2.03;;
7817;SDS011;3954;52.624;9.212;2023-03-14T10:05:19;2.00;;;1.80;;
7817;SDS011;3954;52.624;9.212;2023-03-14T10:07:46;2.30;;;2.07;;
7817;SDS011;3954;52.624;9.212;2023-03-14T10:10:15;2.10;;;2.00;;
7817;SDS011;3954;52.624;9.212;2023-03-14T10:12:44;2.13;;;2.03;;
7817;SDS011;3954;52.624;9.212;2023-03-14T10:15:11;2.53;;;2.20;;
7817;SDS011;3954;52.624;9.212;2023-03-14T10:17:39;3.33;;;2.60;;
7817;SDS011;3954;52.624;9.212;2023-03-14T10:20:05;2.50;;;2.30;;
7817;SDS011;3954;52.624;9.212;2023-03-14T10:22:35;2.87;;;2.60;;
7817;SDS011;3954;52.624;9.212;2023-03-14T10:25:06;3.20;;;2.53;;
7817;SDS011;3954;52.624;9.212;2023-03-14T10:27:46;2.60;;;2.40;;
7817;SDS011;3954;52.624;9.212;2023-03-14T10:30:26;4.83;;;2.27;;
7817;SDS011;3954;52.624;9.212;2023-03-14T10:32:52;1.27;;;1.03;;
7817;SDS011;3954;52.624;9.212;2023-03-14T10:35:19;1.57;;;1.20;;
7817;SDS011;3954;52.624;9.212;2023-03-14T10:37:50;2.30;;;1.00;;
7817;SDS011;3954;52.624;9.212;2023-03-14T10:40:18;2.20;;;1.10;;
7817;SDS011;3954;52.624;9.212;2023-03-14T10:42:46;3.33;;;1.17;;
7817;SDS011;3954;52.624;9.212;2023-03-14T10:45:22;1.67;;;1.00;;
7817;SDS011;3954;52.624;9.212;2023-03-14T10:47:51;1.43;;;1.00;;
7817;SDS011;3954;52.624;9.212;2023-03-14T10:50:24;0.90;;;0.90;;
7817;SDS011;3954;52.624;9.212;2023-03-14T10:52:51;2.47;;;1.10;;
7817;SDS011;3954;52.624;9.212;2023-03-14T10:55:17;3.30;;;1.33;;
7817;SDS011;3954;52.624;9.212;2023-03-14T10:57:43;2.17;;;0.90;;
7817;SDS011;3954;52.624;9.212;2023-03-14T11:00:14;2.47;;;1.20;;
7817;SDS011;3954;52.624;9.212;2023-03-14T11:02:45;1.60;;;1.40;;
7817;SDS011;3954;52.624;9.212;2023-03-14T11:05:18;2.83;;;1.57;;
7817;SDS011;3954;52.624;9.212;2023-03-14T11:07:47;1.63;;;1.23;;
7817;SDS011;3954;52.624;9.212;2023-03-14T11:10:18;1.37;;;1.27;;
7817;SDS011;3954;52.624;9.212;2023-03-14T11:12:47;1.77;;;1.33;;
7817;SDS011;3954;52.624;9.212;2023-03-14T11:15:19;1.20;;;1.20;;
7817;SDS011;3954;52.624;9.212;2023-03-14T11:17:50;1.00;;;1.00;;
7817;SDS011;3954;52.624;9.212;2023-03-14T11:20:23;1.50;;;1.40;;
7817;SDS011;3954;52.624;9.212;2023-03-14T11:22:52;1.33;;;1.23;;
7817;SDS011;3954;52.624;9.212;2023-03-14T11:25:22;1.40;;;1.30;;
7817;SDS011;3954;52.624;9.212;2023-03-14T11:27:55;1.40;;;1.30;;
7817;SDS011;3954;52.624;9.212;2023-03-14T11:30:23;1.33;;;1.23;;
7817;SDS011;3954;52.624;9.212;2023-03-14T11:32:55;1.53;;;1.30;;
7817;SDS011;3954;52.624;9.212;2023-03-14T11:35:22;1.40;;;1.30;;
7817;SDS011;3954;52.624;9.212;2023-03-14T11:37:51;1.43;;;1.23;;
7817;SDS011;3954;52.624;9.212;2023-03-14T11:40:18;1.17;;;1.13;;
7817;SDS011;3954;52.624;9.212;2023-03-14T11:42:46;1.50;;;1.37;;
7817;SDS011;3954;52.624;9.212;2023-03-14T11:45:14;1.30;;;1.20;;
7817;SDS011;3954;52.624;9.212;2023-03-14T11:47:44;1.60;;;1.10;;
7817;SDS011;3954;52.624;9.212;2023-03-14T11:50:12;1.30;;;1.20;;
7817;SDS011;3954;52.624;9.212;2023-03-14T11:52:41;1.20;;;1.10;;
7817;SDS011;3954;52.624;9.212;2023-03-14T11:55:11;1.50;;;1.40;;
7817;SDS011;3954;52.624;9.212;2023-03-14T11:57:38;2.87;;;1.30;;
7817;SDS011;3954;52.624;9.212;2023-03-14T12:00:05;2.93;;;1.40;;
7817;SDS011;3954;52.624;9.212;2023-03-14T12:02:40;2.70;;;1.33;;
7817;SDS011;3954;52.624;9.212;2023-03-14T12:08:10;2.37;;;1.33;;
7817;SDS011;3954;52.624;9.212;2023-03-14T12:10:39;6.13;;;1.73;;
7817;SDS011;3954;52.624;9.212;2023-03-14T12:13:06;2.67;;;1.33;;
7817;SDS011;3954;52.624;9.212;2023-03-14T12:15:33;6.13;;;1.53;;
7817;SDS011;3954;52.624;9.212;2023-03-14T12:18:02;3.93;;;1.60;;
7817;SDS011;3954;52.624;9.212;2023-03-14T12:20:28;5.90;;;1.87;;
7817;SDS011;3954;52.624;9.212;2023-03-14T12:22:54;5.93;;;2.37;;
7817;SDS011;3954;52.624;9.212;2023-03-14T12:25:23;10.70;;;2.53;;
7817;SDS011;3954;52.624;9.212;2023-03-14T12:30:37;2.33;;;1.40;;
7817;SDS011;3954;52.624;9.212;2023-03-14T12:35:58;5.63;;;1.70;;
7817;SDS011;3954;52.624;9.212;2023-03-14T12:38:27;3.90;;;1.60;;
7817;SDS011;3954;52.624;9.212;2023-03-14T12:40:58;4.17;;;2.00;;
7817;SDS011;3954;52.624;9.212;2023-03-14T12:43:27;4.83;;;2.17;;
7817;SDS011;3954;52.624;9.212;2023-03-14T12:46:14;6.37;;;1.77;;
7817;SDS011;3954;52.624;9.212;2023-03-14T12:48:41;5.90;;;1.97;;
7817;SDS011;3954;52.624;9.212;2023-03-14T12:51:12;3.97;;;1.97;;
7817;SDS011;3954;52.624;9.212;2023-03-14T12:53:42;4.70;;;2.00;;
7817;SDS011;3954;52.624;9.212;2023-03-14T13:01:37;8.70;;;2.67;;
7817;SDS011;3954;52.624;9.212;2023-03-14T13:04:12;4.80;;;2.07;;
7817;SDS011;3954;52.624;9.212;2023-03-14T13:06:48;8.50;;;2.40;;
7817;SDS011;3954;52.624;9.212;2023-03-14T13:12:01;11.53;;;2.73;;
7817;SDS011;3954;52.624;9.212;2023-03-14T13:14:28;5.20;;;2.40;;
7817;SDS011;3954;52.624;9.212;2023-03-14T13:16:56;9.60;;;2.43;;
7817;SDS011;3954;52.624;9.212;2023-03-14T13:19:25;9.13;;;2.50;;
7817;SDS011;3954;52.624;9.212;2023-03-14T13:21:52;9.67;;;2.60;;
7817;SDS011;3954;52.624;9.212;2023-03-14T13:24:23;6.87;;;2.43;;
7817;SDS011;3954;52.624;9.212;2023-03-14T13:26:49;9.77;;;2.60;;
7817;SDS011;3954;52.624;9.212;2023-03-14T13:29:19;8.47;;;2.50;;
7817;SDS011;3954;52.624;9.212;2023-03-14T13:31:46;10.40;;;2.70;;
7817;SDS011;3954;52.624;9.212;2023-03-14T13:34:14;12.47;;;2.73;;
7817;SDS011;3954;52.624;9.212;2023-03-14T13:36:40;9.80;;;3.27;;
7817;SDS011;3954;52.624;9.212;2023-03-14T13:39:06;7.97;;;2.57;;
7817;SDS011;3954;52.624;9.212;2023-03-14T13:41:37;9.97;;;2.90;;
7817;SDS011;3954;52.624;9.212;2023-03-14T13:44:05;11.67;;;2.80;;
7817;SDS011;3954;52.624;9.212;2023-03-14T13:46:32;11.83;;;3.10;;
7817;SDS011;3954;52.624;9.212;2023-03-14T13:49:00;14.63;;;3.00;;
7817;SDS011;3954;52.624;9.212;2023-03-14T13:51:28;11.40;;;3.20;;
7817;SDS011;3954;52.624;9.212;2023-03-14T13:53:57;11.23;;;2.73;;
7817;SDS011;3954;52.624;9.212;2023-03-14T13:56:30;7.73;;;2.43;;
7817;SDS011;3954;52.624;9.212;2023-03-14T13:58:56;8.10;;;3.00;;
7817;SDS011;3954;52.624;9.212;2023-03-14T14:01:23;12.37;;;3.43;;
7817;SDS011;3954;52.624;9.212;2023-03-14T14:03:51;8.17;;;3.07;;
7817;SDS011;3954;52.624;9.212;2023-03-14T14:06:23;11.63;;;3.30;;
7817;SDS011;3954;52.624;9.212;2023-03-14T14:08:54;10.40;;;3.20;;
7817;SDS011;3954;52.624;9.212;2023-03-14T14:11:31;5.57;;;1.90;;
7817;SDS011;3954;52.624;9.212;2023-03-14T14:13:58;7.03;;;2.13;;
7817;SDS011;3954;52.624;9.212;2023-03-14T14:16:24;7.73;;;2.20;;
7817;SDS011;3954;52.624;9.212;2023-03-14T14:18:51;4.67;;;1.80;;
7817;SDS011;3954;52.624;9.212;2023-03-14T14:21:18;6.30;;;2.43;;
7817;SDS011;3954;52.624;9.212;2023-03-14T14:23:44;5.37;;;1.97;;
7817;SDS011;3954;52.624;9.212;2023-03-14T14:26:14;6.27;;;1.70;;
7817;SDS011;3954;52.624;9.212;2023-03-14T14:28:41;7.93;;;2.40;;
7817;SDS011;3954;52.624;9.212;2023-03-14T14:31:17;7.03;;;1.97;;
7817;SDS011;3954;52.624;9.212;2023-03-14T14:33:45;6.37;;;2.30;;
7817;SDS011;3954;52.624;9.212;2023-03-14T14:36:15;7.40;;;2.23;;
7817;SDS011;3954;52.624;9.212;2023-03-14T14:38:48;8.83;;;2.23;;
7817;SDS011;3954;52.624;9.212;2023-03-14T14:41:15;8.67;;;2.30;;
7817;SDS011;3954;52.624;9.212;2023-03-14T14:43:41;9.13;;;2.30;;
7817;SDS011;3954;52.624;9.212;2023-03-14T14:46:08;7.23;;;2.00;;
7817;SDS011;3954;52.624;9.212;2023-03-14T14:48:36;6.03;;;2.30;;
7817;SDS011;3954;52.624;9.212;2023-03-14T14:51:04;5.60;;;2.10;;
7817;SDS011;3954;52.624;9.212;2023-03-14T14:53:30;9.10;;;2.63;;
7817;SDS011;3954;52.624;9.212;2023-03-14T14:55:57;4.10;;;1.90;;
7817;SDS011;3954;52.624;9.212;2023-03-14T14:58:26;7.17;;;2.00;;
7817;SDS011;3954;52.624;9.212;2023-03-14T15:00:53;5.90;;;1.90;;
7817;SDS011;3954;52.624;9.212;2023-03-14T15:03:20;7.30;;;2.30;;
7817;SDS011;3954;52.624;9.212;2023-03-14T15:05:46;7.40;;;2.07;;
7817;SDS011;3954;52.624;9.212;2023-03-14T15:08:12;6.90;;;1.73;;
7817;SDS011;3954;52.624;9.212;2023-03-14T15:10:38;5.70;;;1.90;;
7817;SDS011;3954;52.624;9.212;2023-03-14T15:13:04;6.77;;;2.40;;
7817;SDS011;3954;52.624;9.212;2023-03-14T15:15:32;6.00;;;2.13;;
7817;SDS011;3954;52.624;9.212;2023-03-14T15:17:58;7.20;;;2.07;;
7817;SDS011;3954;52.624;9.212;2023-03-14T15:20:24;8.87;;;2.83;;
7817;SDS011;3954;52.624;9.212;2023-03-14T15:22:50;6.53;;;2.23;;
7817;SDS011;3954;52.624;9.212;2023-03-14T15:25:16;5.60;;;2.37;;
7817;SDS011;3954;52.624;9.212;2023-03-14T15:27:42;8.60;;;2.23;;
7817;SDS011;3954;52.624;9.212;2023-03-14T15:30:09;6.50;;;2.37;;
7817;SDS011;3954;52.624;9.212;2023-03-14T15:32:37;5.37;;;1.77;;